createdAt,value
2017-10-04T00:02:10.725Z,99.10
2017-10-04T00:04:39.997Z,99.00
2017-10-04T00:07:09.268Z,99.00
2017-10-04T00:09:38.650Z,98.70
2017-10-04T00:12:07.886Z,98.60
2017-10-04T00:14:37.261Z,98.50
2017-10-04T00:17:07.613Z,98.50
2017-10-04T00:19:36.878Z,98.50
2017-10-04T00:22:06.108Z,98.70
2017-10-04T00:24:35.377Z,98.50
2017-10-04T00:27:04.807Z,98.60
2017-10-04T00:29:34.075Z,98.50
2017-10-04T00:32:03.479Z,98.40
2017-10-04T00:34:33.502Z,98.70
2017-10-04T00:37:02.753Z,98.70
2017-10-04T00:39:32.022Z,98.70
2017-10-04T00:42:01.429Z,98.60
2017-10-04T00:44:31.541Z,98.50
2017-10-04T00:47:00.841Z,98.50
2017-10-04T00:49:30.101Z,98.60
2017-10-04T00:51:59.350Z,98.50
2017-10-04T00:54:28.619Z,98.60
2017-10-04T00:56:57.870Z,98.70
2017-10-04T00:59:27.131Z,98.70
2017-10-04T01:01:56.437Z,98.80
2017-10-04T01:04:25.686Z,98.70
2017-10-04T01:06:55.057Z,98.70
2017-10-04T01:09:24.331Z,98.50
2017-10-04T01:11:53.654Z,98.50
2017-10-04T01:14:22.889Z,98.30
2017-10-04T01:16:52.130Z,98.40
2017-10-04T01:19:22.368Z,98.60
2017-10-04T01:21:52.550Z,98.60
2017-10-04T01:24:21.827Z,98.60
2017-10-04T01:26:51.104Z,98.60
2017-10-04T01:29:21.120Z,98.70
2017-10-04T01:31:50.369Z,98.70
2017-10-04T01:34:19.653Z,98.60
2017-10-04T01:36:48.913Z,98.90
2017-10-04T01:39:18.964Z,99.00
2017-10-04T01:41:48.329Z,99.00
2017-10-04T01:44:17.571Z,99.10
2017-10-04T01:46:46.926Z,99.00
2017-10-04T01:49:16.208Z,98.80
2017-10-04T01:51:45.565Z,98.80
2017-10-04T01:54:15.570Z,98.70
2017-10-04T01:56:44.922Z,98.60
2017-10-04T01:59:14.230Z,98.70
2017-10-04T02:01:43.473Z,98.60
2017-10-04T02:04:12.795Z,98.60
2017-10-04T02:06:42.045Z,98.70
2017-10-04T02:09:11.478Z,98.70
2017-10-04T02:11:40.716Z,98.90
2017-10-04T02:14:10.162Z,98.60
2017-10-04T02:16:39.448Z,98.80
2017-10-04T02:19:08.878Z,98.80
2017-10-04T02:21:38.147Z,98.70
2017-10-04T02:24:07.373Z,98.70
2017-10-04T02:26:36.777Z,98.80
2017-10-04T02:29:06.090Z,98.70
2017-10-04T02:31:35.333Z,99.00
2017-10-04T02:34:04.599Z,99.20
2017-10-04T02:36:33.857Z,99.00
2017-10-04T02:39:03.120Z,98.70
2017-10-04T02:41:32.401Z,98.70
2017-10-04T02:44:01.762Z,98.70
2017-10-04T02:46:31.210Z,98.70
2017-10-04T02:49:01.313Z,98.60
2017-10-04T02:51:30.573Z,98.60
2017-10-04T02:53:59.821Z,98.50
2017-10-04T02:56:29.080Z,98.50
2017-10-04T02:58:58.337Z,98.60
2017-10-04T03:01:28.349Z,98.60
2017-10-04T03:03:57.591Z,98.60
2017-10-04T03:06:27.040Z,98.60
2017-10-04T03:08:57.054Z,98.60
2017-10-04T03:11:26.327Z,98.60
2017-10-04T03:13:55.770Z,98.80
2017-10-04T03:16:25.874Z,98.40
2017-10-04T03:18:55.140Z,98.40
2017-10-04T03:21:24.400Z,98.50
2017-10-04T03:23:53.785Z,98.50
2017-10-04T03:26:23.021Z,98.70
2017-10-04T03:28:52.661Z,98.60
2017-10-04T03:31:21.914Z,98.70
2017-10-04T03:33:52.044Z,98.70
2017-10-04T03:36:22.050Z,98.50
2017-10-04T03:38:51.637Z,98.50
2017-10-04T03:41:20.893Z,98.60
2017-10-04T03:43:50.146Z,98.70
2017-10-04T03:46:19.505Z,98.70
2017-10-04T03:48:48.746Z,98.70
2017-10-04T03:51:18.150Z,98.70
2017-10-04T03:53:47.500Z,98.80
2017-10-04T03:56:16.741Z,98.70
2017-10-04T03:58:46.079Z,98.70
2017-10-04T04:01:15.341Z,98.70
2017-10-04T04:03:44.583Z,98.50
2017-10-04T04:06:13.859Z,98.40
2017-10-04T04:08:43.118Z,98.50
2017-10-04T04:11:12.385Z,98.40
2017-10-04T04:13:42.418Z,98.20
2017-10-04T04:16:11.794Z,98.20
2017-10-04T04:18:41.948Z,98.40
2017-10-04T04:21:11.201Z,98.40
2017-10-04T04:23:40.505Z,98.40
2017-10-04T04:26:09.738Z,98.70
2017-10-04T04:28:38.990Z,98.60
2017-10-04T04:31:08.601Z,98.80
2017-10-04T04:33:37.866Z,98.80
2017-10-04T04:36:07.232Z,99.30
2017-10-04T04:38:54.762Z,99.20
2017-10-04T04:41:24.883Z,99.10
2017-10-04T04:43:54.886Z,99.20
2017-10-04T04:46:24.135Z,99.10
2017-10-04T04:48:53.555Z,99.20
2017-10-04T04:51:23.012Z,99.20
2017-10-04T04:53:52.378Z,99.10
2017-10-04T04:56:21.633Z,99.00
2017-10-04T04:58:50.892Z,99.20
2017-10-04T05:01:21.122Z,99.10
2017-10-04T05:03:51.153Z,99.10
2017-10-04T05:06:20.423Z,99.00
2017-10-04T05:08:50.462Z,99.00
2017-10-04T05:11:19.768Z,98.80
2017-10-04T05:13:49.790Z,98.70
2017-10-04T05:16:19.073Z,98.70
2017-10-04T05:18:48.505Z,98.60
2017-10-04T05:21:18.527Z,98.50
2017-10-04T05:23:48.124Z,98.50
2017-10-04T05:26:17.333Z,98.60
2017-10-04T05:28:46.606Z,98.30
2017-10-04T05:31:15.849Z,98.30
2017-10-04T05:33:45.311Z,98.30
2017-10-04T05:36:14.623Z,98.30
2017-10-04T05:38:43.958Z,98.30
2017-10-04T05:41:13.209Z,98.20
2017-10-04T05:43:42.549Z,98.20
2017-10-04T05:46:12.107Z,98.10
2017-10-04T05:48:41.385Z,98.20
2017-10-04T05:51:10.616Z,98.10
2017-10-04T05:53:39.938Z,98.30
2017-10-04T05:56:09.965Z,98.90
2017-10-04T05:58:39.219Z,98.90
2017-10-04T06:01:08.577Z,98.80
2017-10-04T06:03:37.812Z,99.10
2017-10-04T06:06:07.266Z,98.60
2017-10-04T06:08:37.303Z,98.60
2017-10-04T06:11:06.578Z,98.60
2017-10-04T06:13:36.595Z,98.00
2017-10-04T06:16:05.849Z,98.10
2017-10-04T06:18:35.085Z,97.30
2017-10-04T06:21:04.363Z,97.40
2017-10-04T06:23:33.601Z,97.00
2017-10-04T06:26:03.116Z,96.60
2017-10-04T06:28:33.165Z,96.30
2017-10-04T06:31:02.413Z,96.30
2017-10-04T06:33:31.707Z,95.70
2017-10-04T06:36:01.006Z,95.00
2017-10-04T06:38:30.246Z,95.10
2017-10-04T07:01:33.269Z,92.80
2017-10-04T07:04:03.326Z,92.00
2017-10-04T07:06:32.596Z,92.00
2017-10-04T07:09:01.881Z,91.70
2017-10-04T07:11:31.169Z,90.50
2017-10-04T07:14:00.431Z,89.80
2017-10-04T07:16:29.745Z,90.20
2017-10-04T07:18:59.018Z,87.90
2017-10-04T07:21:28.339Z,86.60
2017-10-04T07:23:58.360Z,82.70
2017-10-04T07:26:27.646Z,82.70
2017-10-04T07:28:56.923Z,81.80
2017-10-04T07:31:26.196Z,79.50
2017-10-04T07:33:55.544Z,79.60
2017-10-04T07:36:24.950Z,81.20
2017-10-04T07:38:54.254Z,76.00
2017-10-04T07:41:23.531Z,70.80
2017-10-04T07:43:53.566Z,61.70
2017-10-04T07:46:22.857Z,61.70
2017-10-04T07:48:52.160Z,61.20
2017-10-04T07:51:21.451Z,63.70
2017-10-04T07:53:50.705Z,62.30
2017-10-04T07:56:20.009Z,65.40
2017-10-04T07:58:49.283Z,65.30
2017-10-04T08:01:18.589Z,66.30
2017-10-04T08:03:47.863Z,66.30
2017-10-04T08:06:18.583Z,67.40
2017-10-04T08:19:18.956Z,68.50
2017-10-04T08:21:48.226Z,77.60
2017-10-04T08:24:17.494Z,79.00
2017-10-04T08:26:46.904Z,75.10
2017-10-04T08:29:16.169Z,70.40
2017-10-04T08:31:45.422Z,70.90
2017-10-04T08:34:14.835Z,65.60
2017-10-04T08:36:45.598Z,62.10
2017-10-04T08:39:14.842Z,62.00
2017-10-04T08:41:44.106Z,58.60
2017-10-04T08:44:13.374Z,57.10
2017-10-04T08:46:43.486Z,55.30
2017-10-04T08:49:12.793Z,55.30
2017-10-04T08:51:42.041Z,56.70
2017-10-04T08:59:52.768Z,61.50
2017-10-04T09:02:29.911Z,59.20
